createdAt,value
2023-05-07T00:00:49.733Z,100580.00
2023-05-07T00:03:17.460Z,100572.00
2023-05-07T00:05:45.117Z,100579.00
2023-05-07T00:08:12.939Z,100581.00
2023-05-07T00:10:40.688Z,100589.00
2023-05-07T00:13:08.513Z,100580.00
2023-05-07T00:15:36.156Z,100587.00
2023-05-07T00:18:04.114Z,100581.00
2023-05-07T00:20:32.200Z,100593.00
2023-05-07T00:23:00.767Z,100582.00
2023-05-07T00:25:28.457Z,100588.00
2023-05-07T00:27:56.085Z,100594.00
2023-05-07T00:30:23.803Z,100591.00
2023-05-07T00:32:52.164Z,100601.00
2023-05-07T00:35:20.263Z,100601.00
2023-05-07T00:37:48.019Z,100590.00
2023-05-07T00:40:15.815Z,100591.00
2023-05-07T00:42:48.396Z,100586.00
2023-05-07T00:45:18.213Z,100574.00
2023-05-07T00:47:46.246Z,100580.00
2023-05-07T00:50:14.955Z,100575.00
2023-05-07T00:52:43.685Z,100570.00
2023-05-07T00:55:11.685Z,100574.00
2023-05-07T00:57:41.628Z,100566.00
2023-05-07T01:00:11.204Z,100570.00
2023-05-07T01:02:39.896Z,100574.00
2023-05-07T01:05:11.419Z,100581.00
2023-05-07T01:07:42.076Z,100576.00
2023-05-07T01:10:10.993Z,100580.00
2023-05-07T01:12:41.153Z,100581.00
2023-05-07T01:15:10.985Z,100582.00
2023-05-07T01:17:41.900Z,100583.00
2023-05-07T01:20:15.351Z,100586.00
2023-05-07T01:22:45.531Z,100588.00
2023-05-07T01:25:14.966Z,100592.00
2023-05-07T01:27:49.550Z,100578.00
2023-05-07T01:30:20.248Z,100588.00
2023-05-07T01:32:55.173Z,100575.00
2023-05-07T01:35:32.192Z,100586.00
2023-05-07T01:38:00.621Z,100583.00
2023-05-07T01:40:29.195Z,100575.00
2023-05-07T01:42:57.409Z,100576.00
2023-05-07T01:45:26.492Z,100566.00
2023-05-07T01:47:55.382Z,100567.00
2023-05-07T01:50:23.350Z,100564.00
2023-05-07T01:52:52.905Z,100574.00
2023-05-07T01:55:20.648Z,100579.00
2023-05-07T01:57:48.505Z,100589.00
2023-05-07T02:00:20.339Z,100588.00
2023-05-07T02:02:48.389Z,100593.00
2023-05-07T02:05:29.492Z,100578.00
2023-05-07T02:08:02.826Z,100580.00
2023-05-07T02:10:32.154Z,100570.00
2023-05-07T02:13:03.001Z,100573.00
2023-05-07T02:15:31.084Z,100579.00
2023-05-07T02:18:09.198Z,100579.00
2023-05-07T02:20:37.501Z,100577.00
2023-05-07T02:23:07.591Z,100578.00
2023-05-07T02:25:35.249Z,100583.00
2023-05-07T02:28:03.427Z,100593.00
2023-05-07T02:30:41.728Z,100599.00
2023-05-07T02:33:10.539Z,100597.00
2023-05-07T02:35:38.189Z,100608.00
2023-05-07T02:38:06.253Z,100606.00
2023-05-07T02:40:35.221Z,100602.00
2023-05-07T02:43:03.083Z,100599.00
2023-05-07T02:45:30.744Z,100609.00
2023-05-07T02:47:58.889Z,100601.00
2023-05-07T02:50:27.841Z,100597.00
2023-05-07T02:52:56.331Z,100602.00
2023-05-07T02:55:24.201Z,100610.00
2023-05-07T02:57:52.494Z,100614.00
2023-05-07T03:00:22.034Z,100620.00
2023-05-07T03:03:06.701Z,100620.00
2023-05-07T03:05:34.449Z,100611.00
2023-05-07T03:08:02.100Z,100618.00
2023-05-07T03:10:29.932Z,100618.00
2023-05-07T03:12:57.559Z,100614.00
2023-05-07T03:15:25.593Z,100608.00
2023-05-07T03:17:54.206Z,100599.00
2023-05-07T03:20:22.424Z,100602.00
2023-05-07T03:22:50.311Z,100606.00
2023-05-07T03:25:18.234Z,100605.00
2023-05-07T03:27:46.082Z,100607.00
2023-05-07T03:30:14.226Z,100598.00
2023-05-07T03:32:42.307Z,100603.00
2023-05-07T03:35:12.842Z,100606.00
2023-05-07T03:37:42.097Z,100606.00
2023-05-07T03:40:13.863Z,100602.00
2023-05-07T03:42:46.988Z,100602.00
2023-05-07T03:45:16.185Z,100592.00
2023-05-07T03:47:48.863Z,100597.00
2023-05-07T03:50:19.836Z,100602.00
2023-05-07T03:52:47.855Z,100596.00
2023-05-07T03:55:18.292Z,100596.00
2023-05-07T03:57:54.432Z,100601.00
2023-05-07T04:00:23.361Z,100596.00
2023-05-07T04:03:16.556Z,100607.00
2023-05-07T04:05:44.185Z,100601.00
2023-05-07T04:08:11.833Z,100603.00
2023-05-07T04:10:42.638Z,100601.00
2023-05-07T04:13:12.492Z,100595.00
2023-05-07T04:15:40.303Z,100606.00
2023-05-07T04:18:11.022Z,100614.00
2023-05-07T04:20:39.613Z,100607.00
2023-05-07T04:23:11.919Z,100612.00
2023-05-07T04:25:40.878Z,100617.00
2023-05-07T04:28:15.062Z,100611.00
2023-05-07T04:30:46.289Z,100616.00
2023-05-07T04:33:18.261Z,100610.00
2023-05-07T04:35:47.391Z,100618.00
2023-05-07T04:38:17.793Z,100616.00
2023-05-07T04:40:48.062Z,100621.00
2023-05-07T04:43:19.912Z,100615.00
2023-05-07T04:45:53.730Z,100618.00
2023-05-07T04:48:24.373Z,100616.00
2023-05-07T04:50:53.614Z,100622.00
2023-05-07T04:53:22.780Z,100633.00
2023-05-07T04:56:00.673Z,100643.00
2023-05-07T04:58:34.474Z,100644.00
2023-05-07T05:01:03.035Z,100655.00
2023-05-07T05:03:31.543Z,100654.00
2023-05-07T05:06:00.974Z,100664.00
2023-05-07T05:08:32.718Z,100663.00
2023-05-07T05:11:03.813Z,100655.00
2023-05-07T05:13:33.522Z,100664.00
2023-05-07T05:16:04.487Z,100665.00
2023-05-07T05:18:34.227Z,100658.00
2023-05-07T05:21:02.022Z,100647.00
2023-05-07T05:23:30.284Z,100654.00
2023-05-07T05:25:59.038Z,100647.00
2023-05-07T05:28:29.384Z,100653.00
2023-05-07T05:30:57.589Z,100653.00
2023-05-07T05:33:27.389Z,100651.00
2023-05-07T05:35:57.837Z,100657.00
2023-05-07T05:38:25.796Z,100662.00
2023-05-07T05:40:55.431Z,100664.00
2023-05-07T05:43:24.884Z,100666.00
2023-05-07T05:45:52.775Z,100662.00
2023-05-07T05:48:20.972Z,100661.00
2023-05-07T05:50:49.361Z,100661.00
2023-05-07T05:53:18.936Z,100660.00
2023-05-07T05:55:46.893Z,100666.00
2023-05-07T05:58:16.357Z,100663.00
2023-05-07T06:00:53.491Z,100661.00
2023-05-07T06:03:25.361Z,100667.00
2023-05-07T06:05:53.055Z,100671.00
2023-05-07T06:08:23.219Z,100675.00
2023-05-07T06:10:51.668Z,100674.00
2023-05-07T06:13:19.999Z,100685.00
2023-05-07T06:15:48.495Z,100678.00
2023-05-07T06:18:16.116Z,100685.00
2023-05-07T06:20:43.632Z,100686.00
2023-05-07T06:23:18.643Z,100685.00
2023-05-07T06:25:52.892Z,100687.00
2023-05-07T06:28:24.457Z,100683.00
2023-05-07T06:30:52.871Z,100684.00
2023-05-07T06:33:21.084Z,100671.00
2023-05-07T06:35:48.878Z,100670.00
2023-05-07T06:38:16.809Z,100677.00
2023-05-07T06:40:46.026Z,100675.00
2023-05-07T06:43:13.698Z,100676.00
2023-05-07T06:45:50.145Z,100679.00
2023-05-07T06:48:18.155Z,100682.00
2023-05-07T06:50:53.145Z,100686.00
2023-05-07T06:53:20.816Z,100690.00
2023-05-07T06:55:49.670Z,100688.00
2023-05-07T06:58:20.544Z,100695.00
2023-05-07T07:00:49.367Z,100697.00
2023-05-07T07:03:17.142Z,100700.00
2023-05-07T07:05:46.112Z,100699.00
2023-05-07T07:08:14.215Z,100702.00
2023-05-07T07:10:41.838Z,100703.00
2023-05-07T07:13:09.540Z,100699.00
2023-05-07T07:15:37.606Z,100701.00
2023-05-07T07:18:05.664Z,100707.00
2023-05-07T07:20:33.895Z,100710.00
2023-05-07T07:23:01.847Z,100712.00
2023-05-07T07:25:29.379Z,100701.00
2023-05-07T07:27:57.372Z,100720.00
2023-05-07T07:30:27.446Z,100716.00
2023-05-07T07:32:57.492Z,100707.00
2023-05-07T07:35:25.731Z,100728.00
2023-05-07T07:37:54.136Z,100723.00
2023-05-07T07:40:21.918Z,100718.00
2023-05-07T07:42:49.969Z,100718.00
2023-05-07T07:45:17.758Z,100712.00
2023-05-07T07:47:48.349Z,100726.00
2023-05-07T07:50:25.118Z,100723.00
2023-05-07T07:53:04.369Z,100720.00
2023-05-07T07:55:33.433Z,100714.00
2023-05-07T07:58:02.233Z,100727.00
2023-05-07T08:00:30.397Z,100723.00
2023-05-07T08:02:59.066Z,100725.00
2023-05-07T08:05:32.052Z,100719.00
2023-05-07T08:08:00.983Z,100724.00
2023-05-07T08:10:35.958Z,100727.00
2023-05-07T08:13:09.235Z,100726.00
2023-05-07T08:15:38.814Z,100731.00
2023-05-07T08:18:07.040Z,100726.00
2023-05-07T08:20:40.630Z,100718.00
2023-05-07T08:23:11.257Z,100725.00
2023-05-07T08:25:40.563Z,100724.00
2023-05-07T08:28:09.752Z,100729.00
2023-05-07T08:30:38.951Z,100733.00
2023-05-07T08:33:07.090Z,100730.00
2023-05-07T08:35:34.760Z,100727.00
2023-05-07T08:38:02.908Z,100723.00
2023-05-07T08:40:37.951Z,100727.00
2023-05-07T08:43:08.350Z,100724.00
2023-05-07T08:45:41.129Z,100728.00
2023-05-07T08:48:17.632Z,100731.00
2023-05-07T08:50:51.500Z,100724.00
2023-05-07T08:53:20.208Z,100738.00
2023-05-07T08:55:48.988Z,100740.00
2023-05-07T08:58:17.257Z,100739.00
2023-05-07T09:00:44.819Z,100742.00
2023-05-07T09:03:14.080Z,100749.00
2023-05-07T09:05:45.953Z,100742.00
2023-05-07T09:08:17.779Z,100742.00
2023-05-07T09:10:50.025Z,100748.00
2023-05-07T09:13:19.504Z,100749.00
2023-05-07T09:15:47.888Z,100748.00
2023-05-07T09:18:16.890Z,100750.00
2023-05-07T09:20:46.642Z,100750.00
2023-05-07T09:23:18.413Z,100752.00
2023-05-07T09:25:46.127Z,100753.00
2023-05-07T09:28:25.392Z,100751.00
2023-05-07T09:30:53.250Z,100756.00
2023-05-07T09:33:21.724Z,100747.00
2023-05-07T09:35:53.617Z,100751.00
2023-05-07T09:38:23.769Z,100754.00
2023-05-07T09:41:15.130Z,100751.00
2023-05-07T09:44:01.584Z,100755.00
2023-05-07T09:46:39.918Z,100754.00
2023-05-07T09:49:26.177Z,100756.00
2023-05-07T09:52:02.993Z,100754.00
2023-05-07T09:54:39.183Z,100753.00
2023-05-07T09:57:11.698Z,100760.00
2023-05-07T09:59:45.218Z,100757.00
2023-05-07T10:02:17.134Z,100761.00
2023-05-07T10:04:50.852Z,100770.00
2023-05-07T10:07:24.303Z,100766.00
2023-05-07T10:09:59.735Z,100773.00
2023-05-07T10:12:40.057Z,100774.00
2023-05-07T10:15:14.117Z,100769.00
2023-05-07T10:17:44.772Z,100767.00
2023-05-07T10:20:13.980Z,100776.00
2023-05-07T10:22:49.119Z,100768.00
2023-05-07T10:25:30.550Z,100771.00
2023-05-07T10:28:10.324Z,100777.00
2023-05-07T10:31:02.323Z,100777.00
2023-05-07T10:33:39.476Z,100768.00
2023-05-07T10:36:09.200Z,100769.00
2023-05-07T10:38:38.389Z,100777.00
2023-05-07T10:41:06.862Z,100778.00
2023-05-07T10:43:46.396Z,100774.00
2023-05-07T10:46:31.978Z,100772.00
2023-05-07T10:49:08.919Z,100783.00
2023-05-07T10:52:20.471Z,100777.00
2023-05-07T10:55:28.035Z,100772.00
2023-05-07T10:58:31.257Z,100776.00
2023-05-07T11:01:54.478Z,100774.00
2023-05-07T11:04:36.179Z,100789.00
2023-05-07T11:07:41.416Z,100782.00
2023-05-07T11:10:14.586Z,100791.00
2023-05-07T11:13:02.685Z,100792.00
2023-05-07T11:15:57.519Z,100778.00
2023-05-07T11:18:55.059Z,100781.00
2023-05-07T11:21:43.496Z,100770.00
2023-05-07T11:24:43.885Z,100782.00
2023-05-07T11:27:14.036Z,100769.00
2023-05-07T11:29:48.588Z,100773.00
2023-05-07T11:32:16.705Z,100775.00
2023-05-07T11:34:57.087Z,100769.00
2023-05-07T11:37:28.723Z,100780.00
2023-05-07T11:40:07.897Z,100779.00
2023-05-07T11:42:42.365Z,100780.00
2023-05-07T11:45:11.590Z,100779.00
2023-05-07T11:47:39.583Z,100772.00
2023-05-07T11:50:11.727Z,100769.00
2023-05-07T11:52:40.512Z,100776.00
2023-05-07T11:55:09.429Z,100783.00
2023-05-07T11:57:37.357Z,100783.00
2023-05-07T12:00:06.591Z,100787.00
2023-05-07T12:02:44.014Z,100790.00
2023-05-07T12:05:11.890Z,100781.00
2023-05-07T12:07:39.521Z,100787.00
2023-05-07T12:10:08.550Z,100792.00
2023-05-07T12:12:43.380Z,100794.00
2023-05-07T12:15:12.212Z,100796.00
2023-05-07T12:17:40.145Z,100797.00
2023-05-07T12:20:09.110Z,100789.00
2023-05-07T12:22:37.902Z,100791.00
2023-05-07T12:25:06.958Z,100793.00
2023-05-07T12:27:39.600Z,100784.00
2023-05-07T12:30:08.436Z,100782.00
2023-05-07T12:32:38.296Z,100782.00
2023-05-07T12:35:08.380Z,100785.00
2023-05-07T12:37:37.653Z,100783.00
2023-05-07T12:40:11.669Z,100791.00
2023-05-07T12:42:41.849Z,100794.00
2023-05-07T12:45:14.887Z,100791.00
2023-05-07T12:47:47.047Z,100787.00
2023-05-07T12:50:16.604Z,100805.00
2023-05-07T12:52:49.442Z,100807.00
2023-05-07T12:55:18.330Z,100813.00
2023-05-07T12:57:55.421Z,100811.00
2023-05-07T13:00:37.817Z,100808.00
2023-05-07T13:03:06.514Z,100803.00
2023-05-07T13:05:34.804Z,100803.00
2023-05-07T13:08:02.729Z,100801.00
2023-05-07T13:10:30.237Z,100804.00
2023-05-07T13:13:01.059Z,100805.00
2023-05-07T13:15:28.632Z,100803.00
2023-05-07T13:17:56.685Z,100794.00
2023-05-07T13:20:24.509Z,100796.00
2023-05-07T13:22:52.063Z,100799.00
2023-05-07T13:25:19.636Z,100790.00
2023-05-07T13:27:49.751Z,100780.00
2023-05-07T13:30:24.644Z,100780.00
2023-05-07T13:32:53.581Z,100787.00
2023-05-07T13:35:21.330Z,100783.00
2023-05-07T13:37:53.263Z,100785.00
2023-05-07T13:40:20.858Z,100786.00
2023-05-07T13:42:48.819Z,100781.00
2023-05-07T13:45:16.880Z,100779.00
2023-05-07T13:47:45.352Z,100774.00
2023-05-07T13:50:14.771Z,100782.00
2023-05-07T13:52:46.987Z,100770.00
2023-05-07T13:55:15.222Z,100771.00
2023-05-07T13:57:42.831Z,100771.00
2023-05-07T14:00:11.575Z,100775.00
2023-05-07T14:02:45.321Z,100768.00
2023-05-07T14:05:14.602Z,100770.00
2023-05-07T14:07:42.357Z,100775.00
2023-05-07T14:10:11.562Z,100775.00
2023-05-07T14:12:39.444Z,100762.00
2023-05-07T14:15:07.753Z,100760.00
2023-05-07T14:17:35.242Z,100773.00
2023-05-07T14:20:03.140Z,100765.00
2023-05-07T14:22:30.851Z,100764.00
2023-05-07T14:25:06.412Z,100769.00
2023-05-07T14:27:34.694Z,100768.00
2023-05-07T14:30:02.875Z,100766.00
2023-05-07T14:32:30.602Z,100771.00
2023-05-07T14:34:58.294Z,100763.00
2023-05-07T14:37:26.176Z,100770.00
2023-05-07T14:39:53.793Z,100765.00
2023-05-07T14:42:21.499Z,100769.00
2023-05-07T14:44:49.591Z,100758.00
2023-05-07T14:47:19.017Z,100762.00
2023-05-07T14:49:47.483Z,100766.00
2023-05-07T14:52:15.271Z,100764.00
2023-05-07T14:54:42.872Z,100770.00
2023-05-07T14:57:12.174Z,100773.00
2023-05-07T14:59:40.378Z,100767.00
2023-05-07T15:02:09.358Z,100765.00
2023-05-07T15:04:39.497Z,100774.00
2023-05-07T15:07:06.912Z,100769.00
2023-05-07T15:09:34.372Z,100768.00
2023-05-07T15:12:03.436Z,100773.00
2023-05-07T15:14:30.974Z,100777.00
2023-05-07T15:16:58.658Z,100780.00
2023-05-07T15:19:30.219Z,100790.00
2023-05-07T15:22:04.756Z,100783.00
2023-05-07T15:24:32.636Z,100780.00
2023-05-07T15:27:00.498Z,100781.00
2023-05-07T15:29:28.133Z,100783.00
2023-05-07T15:31:58.131Z,100779.00
2023-05-07T15:34:25.821Z,100783.00
2023-05-07T15:36:53.357Z,100784.00
2023-05-07T15:39:23.583Z,100787.00
2023-05-07T15:41:52.623Z,100793.00
2023-05-07T15:44:20.255Z,100796.00
2023-05-07T15:46:47.763Z,100803.00
2023-05-07T15:49:15.401Z,100805.00
2023-05-07T15:51:43.277Z,100802.00
2023-05-07T15:54:11.127Z,100807.00
2023-05-07T15:56:39.119Z,100800.00
2023-05-07T15:59:07.019Z,100808.00
2023-05-07T16:01:34.909Z,100805.00
2023-05-07T16:04:02.737Z,100794.00
2023-05-07T16:06:31.631Z,100796.00
2023-05-07T16:08:59.429Z,100794.00
2023-05-07T16:11:30.571Z,100796.00
2023-05-07T16:13:59.856Z,100794.00
2023-05-07T16:16:30.333Z,100791.00
2023-05-07T16:18:58.153Z,100790.00
2023-05-07T16:21:25.991Z,100793.00
2023-05-07T16:23:53.810Z,100792.00
2023-05-07T16:26:21.574Z,100793.00
2023-05-07T16:28:49.806Z,100793.00
2023-05-07T16:31:17.859Z,100792.00
2023-05-07T16:33:45.715Z,100797.00
2023-05-07T16:36:13.381Z,100791.00
2023-05-07T16:38:40.867Z,100796.00
2023-05-07T16:41:08.449Z,100803.00
2023-05-07T16:43:36.097Z,100799.00
2023-05-07T16:46:03.872Z,100800.00
2023-05-07T16:48:31.590Z,100807.00
2023-05-07T16:50:59.883Z,100806.00
2023-05-07T16:53:27.560Z,100808.00
2023-05-07T16:55:56.717Z,100815.00
2023-05-07T16:58:24.545Z,100818.00
2023-05-07T17:00:52.026Z,100811.00
2023-05-07T17:03:19.938Z,100811.00
2023-05-07T17:05:47.961Z,100803.00
2023-05-07T17:08:15.586Z,100799.00
2023-05-07T17:10:43.271Z,100808.00
2023-05-07T17:13:10.982Z,100806.00
2023-05-07T17:15:40.570Z,100805.00
2023-05-07T17:18:08.584Z,100809.00
2023-05-07T17:20:36.126Z,100804.00
2023-05-07T17:23:03.861Z,100805.00
2023-05-07T17:25:35.932Z,100808.00
2023-05-07T17:28:03.927Z,100805.00
2023-05-07T17:30:31.636Z,100797.00
2023-05-07T17:33:09.231Z,100807.00
2023-05-07T17:35:41.094Z,100806.00
2023-05-07T17:38:08.820Z,100812.00
2023-05-07T17:40:36.544Z,100813.00
2023-05-07T17:43:04.133Z,100813.00
2023-05-07T17:45:33.342Z,100810.00
2023-05-07T17:48:01.799Z,100804.00
2023-05-07T17:50:29.445Z,100806.00
2023-05-07T17:52:57.014Z,100812.00
2023-05-07T17:55:24.805Z,100813.00
2023-05-07T17:57:52.315Z,100813.00
2023-05-07T18:00:20.416Z,100820.00
2023-05-07T18:02:48.043Z,100812.00
2023-05-07T18:05:15.853Z,100808.00
2023-05-07T18:07:43.507Z,100814.00
2023-05-07T18:10:12.051Z,100808.00
2023-05-07T18:12:40.235Z,100811.00
2023-05-07T18:15:08.703Z,100817.00
2023-05-07T18:17:37.364Z,100819.00
2023-05-07T18:20:12.001Z,100820.00
2023-05-07T18:22:40.603Z,100813.00
2023-05-07T18:25:09.228Z,100822.00
2023-05-07T18:27:37.115Z,100826.00
2023-05-07T18:30:05.543Z,100822.00
2023-05-07T18:32:33.482Z,100828.00
2023-05-07T18:35:01.317Z,100838.00
2023-05-07T18:37:29.579Z,100848.00
2023-05-07T18:39:57.974Z,100852.00
2023-05-07T18:42:25.378Z,100850.00
2023-05-07T18:44:52.920Z,100853.00
2023-05-07T18:47:20.517Z,100861.00
2023-05-07T18:49:48.059Z,100862.00
2023-05-07T18:52:17.138Z,100865.00
2023-05-07T18:54:46.001Z,100857.00
2023-05-07T18:57:13.695Z,100858.00
2023-05-07T18:59:41.303Z,100858.00
2023-05-07T19:02:08.793Z,100863.00
2023-05-07T19:04:36.708Z,100869.00
2023-05-07T19:07:04.587Z,100876.00
2023-05-07T19:09:32.122Z,100869.00
2023-05-07T19:12:00.227Z,100869.00
2023-05-07T19:14:27.879Z,100866.00
2023-05-07T19:16:55.448Z,100873.00
2023-05-07T19:19:23.049Z,100866.00
2023-05-07T19:21:50.755Z,100871.00
2023-05-07T19:24:18.334Z,100871.00
2023-05-07T19:26:45.939Z,100878.00
2023-05-07T19:29:17.853Z,100879.00
2023-05-07T19:31:46.553Z,100878.00
2023-05-07T19:34:14.477Z,100873.00
2023-05-07T19:36:44.315Z,100882.00
2023-05-07T19:39:12.267Z,100881.00
2023-05-07T19:41:42.212Z,100884.00
2023-05-07T19:44:10.025Z,100882.00
2023-05-07T19:46:40.546Z,100878.00
2023-05-07T19:49:10.050Z,100875.00
2023-05-07T19:51:38.900Z,100879.00
2023-05-07T19:54:06.772Z,100886.00
2023-05-07T19:56:34.869Z,100895.00
2023-05-07T19:59:02.716Z,100892.00
2023-05-07T20:01:32.040Z,100902.00
2023-05-07T20:04:00.397Z,100902.00
2023-05-07T20:06:28.037Z,100899.00
2023-05-07T20:08:55.635Z,100902.00
2023-05-07T20:11:23.529Z,100901.00
2023-05-07T20:13:51.224Z,100912.00
2023-05-07T20:16:18.970Z,100903.00
2023-05-07T20:18:46.561Z,100909.00
2023-05-07T20:21:14.128Z,100910.00
2023-05-07T20:23:41.669Z,100907.00
2023-05-07T20:26:09.129Z,100915.00
2023-05-07T20:28:36.894Z,100908.00
2023-05-07T20:31:04.774Z,100915.00
2023-05-07T20:33:32.507Z,100916.00
2023-05-07T20:36:00.218Z,100922.00
2023-05-07T20:38:28.816Z,100914.00
2023-05-07T20:40:56.342Z,100927.00
2023-05-07T20:43:23.840Z,100921.00
2023-05-07T20:46:01.936Z,100932.00
2023-05-07T20:48:33.537Z,100935.00
2023-05-07T20:51:02.631Z,100933.00
2023-05-07T20:53:33.395Z,100940.00
2023-05-07T20:56:01.096Z,100936.00
2023-05-07T20:58:29.365Z,100934.00
2023-05-07T21:00:57.302Z,100927.00
2023-05-07T21:03:25.019Z,100930.00
2023-05-07T21:05:57.755Z,100925.00
2023-05-07T21:08:25.180Z,100928.00
2023-05-07T21:10:54.462Z,100926.00
2023-05-07T21:13:23.514Z,100922.00
2023-05-07T21:15:51.472Z,100924.00
2023-05-07T21:18:19.766Z,100940.00
2023-05-07T21:20:47.415Z,100934.00
2023-05-07T21:23:15.259Z,100946.00
2023-05-07T21:25:47.350Z,100941.00
2023-05-07T21:28:15.017Z,100945.00
2023-05-07T21:30:42.637Z,100939.00
2023-05-07T21:33:10.470Z,100936.00
2023-05-07T21:35:38.065Z,100933.00
2023-05-07T21:38:05.736Z,100935.00
2023-05-07T21:40:33.726Z,100931.00
2023-05-07T21:43:01.317Z,100936.00
2023-05-07T21:45:29.007Z,100930.00
2023-05-07T21:47:56.897Z,100943.00
2023-05-07T21:50:24.602Z,100933.00
2023-05-07T21:52:52.073Z,100938.00
2023-05-07T21:55:19.883Z,100935.00
2023-05-07T21:58:01.113Z,100943.00
2023-05-07T22:00:33.171Z,100946.00
2023-05-07T22:03:01.363Z,100943.00
2023-05-07T22:05:29.223Z,100945.00
2023-05-07T22:07:56.765Z,100938.00
2023-05-07T22:10:25.907Z,100943.00
2023-05-07T22:12:53.832Z,100942.00
2023-05-07T22:15:22.044Z,100943.00
2023-05-07T22:17:49.686Z,100945.00
2023-05-07T22:20:17.357Z,100949.00
2023-05-07T22:22:54.709Z,100958.00
2023-05-07T22:25:24.436Z,100950.00
2023-05-07T22:27:52.432Z,100947.00
2023-05-07T22:30:20.317Z,100951.00
2023-05-07T22:32:47.902Z,100938.00
2023-05-07T22:35:16.088Z,100937.00
2023-05-07T22:37:43.976Z,100934.00
2023-05-07T22:40:12.592Z,100940.00
2023-05-07T22:42:40.714Z,100951.00
2023-05-07T22:45:09.482Z,100941.00
2023-05-07T22:47:37.060Z,100939.00
2023-05-07T22:50:06.552Z,100934.00
2023-05-07T22:52:37.181Z,100941.00
2023-05-07T22:55:05.368Z,100933.00
2023-05-07T22:57:32.925Z,100926.00
2023-05-07T23:00:00.633Z,100930.00
2023-05-07T23:02:29.417Z,100928.00
2023-05-07T23:05:01.153Z,100923.00
2023-05-07T23:07:29.105Z,100927.00
2023-05-07T23:09:56.489Z,100929.00
2023-05-07T23:12:24.022Z,100914.00
2023-05-07T23:14:51.821Z,100921.00
2023-05-07T23:17:19.434Z,100912.00
2023-05-07T23:19:47.107Z,100922.00
2023-05-07T23:22:16.201Z,100916.00
2023-05-07T23:24:43.944Z,100921.00
2023-05-07T23:27:11.956Z,100915.00
2023-05-07T23:29:39.702Z,100918.00
2023-05-07T23:32:07.488Z,100917.00
2023-05-07T23:34:35.325Z,100908.00
2023-05-07T23:37:02.941Z,100920.00
2023-05-07T23:39:30.782Z,100921.00
2023-05-07T23:41:59.233Z,100919.00
2023-05-07T23:44:26.959Z,100916.00
2023-05-07T23:46:54.794Z,100926.00
2023-05-07T23:49:22.345Z,100924.00
2023-05-07T23:51:50.118Z,100926.00
2023-05-07T23:54:17.523Z,100919.00
2023-05-07T23:56:44.870Z,100923.00
2023-05-07T23:59:12.567Z,100925.00
